Terminal Aerodrome Forecast
Issued by NWS

Home | Current Version | Previous Version | Text Only | Print | Product List | Glossary Off
Versions: 1 2 3 4 5 6 7 8 9 10 11 12 13 14 15 16 17 18

756
FTUS43 KMPX 270946 AAA
TAFAXN
TAF AMD
KAXN 270946Z 2710/2806 15005KT P6SM BKN110
      TEMPO 2714/2716 5SM -TSRA BR BKN050CB OVC090
     FM271700 17010G16KT P6SM BKN150=

USA.gov is the U.S. government's official web portal to all federal, state and local government web resources and services.